Time;durP1;ratioP1;P1;durP2;ratioP2;P2;SDS_P1;SDS_P2;PMS_P1;PMS_P2;Temp;Humidity;BMP_temperature;BMP_pressure;BME280_temperature;BME280_humidity;BME280_pressure;Samples;Min_cycle;Max_cycle;Signal;HPM_P1;HPM_P2
2023/08/03 00:00:50;;;;;;;9.40;2.45;;;;;;;15.24;95.65;99489.66;5028647;28;20072;-46
2023/08/03 00:03:17;;;;;;;5.55;2.30;;;;;;;15.22;95.65;99497.59;5026588;28;20045;-49
2023/08/03 00:05:44;;;;;;;9.52;2.10;;;;;;;15.23;95.95;99499.22;5020215;28;20045;-46
2023/08/03 00:08:11;;;;;;;8.40;2.28;;;;;;;15.24;96.01;99506.38;5032451;28;20045;-46
2023/08/03 00:10:38;;;;;;;7.72;2.50;;;;;;;15.25;96.14;99507.97;5031337;28;20562;-46
2023/08/03 00:13:04;;;;;;;8.40;3.13;;;;;;;15.24;96.20;99511.97;5032946;28;20099;-46
2023/08/03 00:15:31;;;;;;;12.07;2.33;;;;;;;15.22;96.44;99514.34;5032938;28;20128;-47
2023/08/03 00:17:58;;;;;;;8.18;2.40;;;;;;;15.22;96.41;99519.91;5028476;28;20056;-47
2023/08/03 00:20:25;;;;;;;9.98;3.47;;;;;;;15.23;96.50;99515.13;5032226;28;20419;-48
2023/08/03 00:22:53;;;;;;;12.52;4.05;;;;;;;15.19;96.44;99512.38;5033031;28;20049;-47
2023/08/03 00:25:20;;;;;;;18.70;3.30;;;;;;;15.20;96.51;99527.09;5032238;28;20050;-52
2023/08/03 00:27:47;;;;;;;6.38;2.55;;;;;;;15.19;96.57;99531.91;5028338;28;20052;-46
2023/08/03 00:30:14;;;;;;;6.20;2.10;;;;;;;15.19;96.58;99534.69;5032458;28;20487;-46
2023/08/03 00:32:41;;;;;;;6.05;2.30;;;;;;;15.19;96.63;99537.47;5032563;28;20048;-47
2023/08/03 00:35:08;;;;;;;5.32;2.58;;;;;;;15.18;96.63;99547.03;5032345;28;20107;-46
2023/08/03 00:37:37;;;;;;;9.55;2.72;;;;;;;15.17;96.68;99539.06;5030807;28;20041;-47
2023/08/03 00:40:04;;;;;;;5.13;2.10;;;;;;;15.17;96.89;99545.44;5023961;28;20053;-46
2023/08/03 00:42:31;;;;;;;10.13;2.83;;;;;;;15.14;96.88;99546.25;5028812;28;20041;-47
2023/08/03 00:44:58;;;;;;;9.02;2.72;;;;;;;15.14;96.98;99551.81;5025429;28;20045;-46
2023/08/03 00:47:25;;;;;;;7.93;2.50;;;;;;;15.13;97.07;99561.41;5029970;28;20561;-46
2023/08/03 00:49:52;;;;;;;6.63;2.90;;;;;;;15.10;97.12;99561.41;5026961;28;20111;-46
2023/08/03 00:52:20;;;;;;;8.90;2.10;;;;;;;15.10;97.21;99561.41;5029285;28;20076;-46
2023/08/03 00:54:47;;;;;;;10.52;2.65;;;;;;;15.05;97.26;99565.41;5028978;28;20045;-46
2023/08/03 00:57:13;;;;;;;10.07;2.97;;;;;;;15.05;97.27;99570.97;5026527;28;20099;-46
2023/08/03 00:59:40;;;;;;;7.68;3.00;;;;;;;15.06;97.29;99563.41;5020182;28;20492;-48
2023/08/03 01:02:08;;;;;;;3.67;2.33;;;;;;;15.06;97.22;99580.16;5026381;28;20061;-47
2023/08/03 01:04:36;;;;;;;11.85;2.75;;;;;;;15.03;97.21;99576.19;5029626;28;20056;-46
2023/08/03 01:07:03;;;;;;;7.32;2.20;;;;;;;15.03;97.45;99570.59;5027853;28;20172;-49
2023/08/03 01:09:30;;;;;;;5.32;2.60;;;;;;;15.03;97.60;99575.38;5031388;28;20533;-46
2023/08/03 01:11:56;;;;;;;9.88;2.50;;;;;;;15.02;97.46;99580.16;5031726;28;20765;-46
2023/08/03 01:14:23;;;;;;;8.65;2.95;;;;;;;14.99;97.43;99580.94;5031727;28;20520;-46
2023/08/03 01:16:51;;;;;;;11.15;2.78;;;;;;;14.96;97.36;99575.38;5031714;28;20096;-46
2023/08/03 01:19:18;;;;;;;7.63;2.28;;;;;;;14.93;97.50;99587.34;5031261;28;20068;-46
2023/08/03 01:21:46;;;;;;;5.72;2.42;;;;;;;14.89;97.62;99584.56;5031806;28;20064;-48
2023/08/03 01:24:13;;;;;;;9.00;3.20;;;;;;;14.86;97.63;99588.16;5030419;28;20132;-46
2023/08/03 01:26:42;;;;;;;10.15;3.78;;;;;;;14.84;97.67;99593.34;5030801;28;20562;-50
2023/08/03 01:29:08;;;;;;;9.50;3.35;;;;;;;14.78;97.66;99603.28;5031050;28;20054;-48
2023/08/03 01:31:36;;;;;;;8.77;2.83;;;;;;;14.75;97.88;99604.09;5031632;28;20049;-48
2023/08/03 01:34:02;;;;;;;9.80;2.80;;;;;;;14.72;97.82;99604.13;5031379;28;20037;-46
2023/08/03 01:36:29;;;;;;;10.43;3.00;;;;;;;14.70;98.01;99607.28;5031056;28;20045;-48
2023/08/03 01:39:07;;;;;;;10.35;2.78;;;;;;;14.65;98.15;99607.69;5029871;28;20045;-51
2023/08/03 01:41:38;;;;;;;4.45;3.17;;;;;;;14.64;98.34;99608.88;5017746;28;20046;-48
2023/08/03 01:44:25;;;;;;;7.80;3.10;;;;;;;14.63;98.25;99616.47;5028054;28;20103;-46
2023/08/03 01:46:54;;;;;;;8.93;2.80;;;;;;;14.61;98.29;99618.06;5021470;28;20045;-46
2023/08/03 01:49:22;;;;;;;7.32;2.95;;;;;;;14.60;98.51;99622.03;5027058;28;20053;-46
2023/08/03 01:51:50;;;;;;;11.30;2.72;;;;;;;14.58;98.40;99630.00;5029828;28;20041;-46
2023/08/03 01:54:17;;;;;;;8.35;2.58;;;;;;;14.58;98.52;99630.81;5027477;28;20049;-46
2023/08/03 01:56:43;;;;;;;6.88;2.90;;;;;;;14.57;98.56;99636.75;5029320;28;20041;-48
2023/08/03 01:59:11;;;;;;;4.63;2.47;;;;;;;14.59;98.49;99635.16;5022504;28;20143;-46
2023/08/03 02:01:38;;;;;;;8.32;3.17;;;;;;;14.60;98.58;99641.53;5026700;28;20038;-46
2023/08/03 02:04:06;;;;;;;12.35;3.55;;;;;;;14.59;98.71;99635.16;5024713;28;20850;-52
2023/08/03 02:06:33;;;;;;;10.98;3.10;;;;;;;14.60;98.70;99642.34;5027101;28;20499;-45
2023/08/03 02:09:00;;;;;;;12.05;3.15;;;;;;;14.59;98.78;99649.09;5026595;28;20495;-46
2023/08/03 02:11:27;;;;;;;8.40;3.80;;;;;;;14.58;98.64;99646.72;5028584;28;20043;-48
2023/08/03 02:13:54;;;;;;;11.48;3.75;;;;;;;14.56;98.87;99652.66;5031143;28;20049;-50
2023/08/03 02:16:21;;;;;;;10.63;4.38;;;;;;;14.55;98.54;99655.88;5030806;28;20063;-47
2023/08/03 02:18:51;;;;;;;8.48;3.08;;;;;;;14.53;98.92;99655.47;5031016;28;20046;-46
2023/08/03 02:21:18;;;;;;;6.28;3.33;;;;;;;14.52;98.77;99662.22;5030935;28;20059;-46
2023/08/03 02:23:45;;;;;;;9.02;3.42;;;;;;;14.49;98.95;99660.22;5030814;28;20514;-46
2023/08/03 02:26:12;;;;;;;9.13;3.08;;;;;;;14.45;98.91;99659.44;5017969;28;20056;-46
2023/08/03 02:28:39;;;;;;;11.38;2.97;;;;;;;14.41;98.88;99669.78;5030541;28;20057;-46
2023/08/03 02:31:06;;;;;;;8.57;2.78;;;;;;;14.37;98.81;99669.00;5030656;28;20048;-45
2023/08/03 02:33:33;;;;;;;11.15;3.30;;;;;;;14.33;98.92;99668.19;5029505;28;20060;-47
2023/08/03 02:36:00;;;;;;;11.70;3.17;;;;;;;14.29;98.78;99672.94;5029111;28;20099;-45
2023/08/03 02:38:27;;;;;;;11.57;2.92;;;;;;;14.25;99.05;99672.91;5027991;28;20152;-46
2023/08/03 02:40:54;;;;;;;10.57;3.47;;;;;;;14.21;99.15;99671.31;5025699;28;20046;-47
2023/08/03 02:43:20;;;;;;;9.98;2.80;;;;;;;14.17;99.12;99678.84;5026239;28;20053;-46
2023/08/03 02:45:47;;;;;;;6.43;2.72;;;;;;;14.13;99.22;99680.84;5023175;28;20128;-47
2023/08/03 02:48:14;;;;;;;8.18;3.83;;;;;;;14.10;99.20;99681.63;5019889;28;20096;-46
2023/08/03 02:50:41;;;;;;;8.98;3.63;;;;;;;14.06;99.33;99686.41;5026759;28;20610;-46
2023/08/03 02:53:08;;;;;;;11.32;3.22;;;;;;;13.99;99.37;99682.41;5029529;28;20049;-48
2023/08/03 02:55:35;;;;;;;10.90;3.20;;;;;;;13.96;99.40;99699.91;5025429;28;20041;-46
2023/08/03 02:58:02;;;;;;;11.55;3.20;;;;;;;13.93;99.38;99699.88;5020608;28;20049;-47
2023/08/03 03:00:29;;;;;;;9.32;3.35;;;;;;;13.89;99.33;99711.00;5018890;28;20060;-47
2023/08/03 03:02:56;;;;;;;11.40;3.53;;;;;;;13.85;99.43;99704.63;5029462;28;20450;-47
2023/08/03 03:05:23;;;;;;;9.32;3.25;;;;;;;13.81;99.37;99712.19;5030281;28;20048;-46
2023/08/03 03:07:50;;;;;;;9.02;3.42;;;;;;;13.77;99.49;99707.75;5030262;28;20056;-46
2023/08/03 03:10:17;;;;;;;10.00;4.57;;;;;;;13.73;99.56;99707.78;5031073;28;20045;-47
2023/08/03 03:12:45;;;;;;;9.93;3.20;;;;;;;13.70;99.84;99707.75;5031688;28;20038;-46
2023/08/03 03:15:13;;;;;;;5.93;3.00;;;;;;;13.65;99.69;99717.28;5029689;28;20052;-46
2023/08/03 03:17:42;;;;;;;9.05;3.53;;;;;;;13.64;99.82;99721.22;5028450;28;20045;-47
2023/08/03 03:20:11;;;;;;;9.77;4.70;;;;;;;13.60;100.00;99726.00;5031075;28;20056;-46
2023/08/03 03:22:38;;;;;;;11.45;3.13;;;;;;;13.60;99.92;99739.09;5033173;28;20132;-48
2023/08/03 03:25:05;;;;;;;14.90;3.75;;;;;;;13.58;100.00;99735.91;5030170;28;20045;-48
2023/08/03 03:27:32;;;;;;;8.13;4.38;;;;;;;13.54;99.96;99744.22;5030845;28;20045;-48
2023/08/03 03:29:59;;;;;;;8.32;2.83;;;;;;;13.53;99.96;99747.41;5031322;28;20063;-47
2023/08/03 03:32:26;;;;;;;10.55;3.40;;;;;;;13.52;100.00;99754.94;5029464;28;20491;-54
2023/08/03 03:34:53;;;;;;;10.10;2.95;;;;;;;13.49;100.00;99752.94;5029475;28;20049;-46
2023/08/03 03:37:20;;;;;;;13.02;3.55;;;;;;;13.49;100.00;99758.50;5030970;28;20049;-47
2023/08/03 03:39:47;;;;;;;11.32;3.22;;;;;;;13.47;100.00;99763.66;5031171;28;20056;-47
2023/08/03 03:42:13;;;;;;;12.13;3.97;;;;;;;13.46;99.96;99759.28;5028983;28;20471;-46
2023/08/03 03:44:40;;;;;;;9.57;2.88;;;;;;;13.41;99.89;99757.66;5033073;28;20132;-50
2023/08/03 03:47:07;;;;;;;7.65;3.20;;;;;;;13.36;99.94;99768.34;5033358;28;20052;-47
2023/08/03 03:49:34;;;;;;;12.18;3.03;;;;;;;13.35;100.00;99780.66;5033418;28;20072;-46
2023/08/03 03:52:01;;;;;;;12.43;3.30;;;;;;;13.31;100.00;99779.84;5033115;28;20049;-47
2023/08/03 03:54:28;;;;;;;11.13;4.47;;;;;;;13.27;100.00;99784.56;5033386;28;20049;-46
2023/08/03 03:56:55;;;;;;;13.63;3.60;;;;;;;13.25;100.00;99786.94;5033126;28;20095;-46
2023/08/03 03:59:22;;;;;;;10.32;3.80;;;;;;;13.23;100.00;99792.09;5024960;28;20547;-47
2023/08/03 04:01:48;;;;;;;7.70;3.05;;;;;;;13.19;100.00;99785.69;5028595;28;20042;-46
2023/08/03 04:04:15;;;;;;;10.48;3.50;;;;;;;13.18;100.00;99796.03;5032850;28;20042;-46
2023/08/03 04:06:43;;;;;;;8.07;3.38;;;;;;;13.18;100.00;99801.59;5031933;28;20052;-47
2023/08/03 04:09:10;;;;;;;10.52;2.95;;;;;;;13.15;100.00;99804.34;5032868;28;20045;-48
2023/08/03 04:11:37;;;;;;;11.57;3.90;;;;;;;13.15;100.00;99804.34;5033062;28;20052;-46
2023/08/03 04:14:04;;;;;;;7.47;2.90;;;;;;;13.15;100.00;99818.22;5025566;28;20053;-47
2023/08/03 04:16:30;;;;;;;17.13;3.78;;;;;;;13.14;100.00;99819.41;5028360;28;20046;-50
2023/08/03 04:18:57;;;;;;;15.23;4.32;;;;;;;13.10;100.00;99824.94;5030507;28;20499;-49
2023/08/03 04:21:24;;;;;;;5.85;2.88;;;;;;;13.06;100.00;99823.28;5031379;28;20050;-48
2023/08/03 04:23:51;;;;;;;11.15;3.17;;;;;;;13.03;100.00;99832.38;5027676;28;20080;-47
2023/08/03 04:26:18;;;;;;;9.68;3.70;;;;;;;13.00;100.00;99830.38;5031293;28;20103;-46
2023/08/03 04:28:45;;;;;;;9.63;3.15;;;;;;;12.99;100.00;99837.91;5025251;28;20377;-47
2023/08/03 04:31:11;;;;;;;6.10;2.90;;;;;;;12.99;100.00;99848.22;5026627;28;20045;-47
2023/08/03 04:33:38;;;;;;;9.05;2.88;;;;;;;12.98;100.00;99841.88;5029189;28;20060;-48
2023/08/03 04:36:05;;;;;;;9.43;3.88;;;;;;;13.01;100.00;99843.06;5029735;28;20061;-47
2023/08/03 04:38:32;;;;;;;10.07;2.95;;;;;;;12.97;100.00;99853.38;5028954;28;20498;-47
2023/08/03 04:41:01;;;;;;;8.90;3.03;;;;;;;12.99;100.00;99851.81;5030056;28;20169;-46
2023/08/03 04:43:28;;;;;;;13.60;3.38;;;;;;;12.98;100.00;99852.97;5026530;28;20545;-47
2023/08/03 04:45:55;;;;;;;5.22;3.00;;;;;;;12.97;100.00;99862.50;5027517;28;20041;-47
2023/08/03 04:48:22;;;;;;;8.98;3.33;;;;;;;12.97;100.00;99864.50;5030823;28;20041;-48
2023/08/03 04:50:49;;;;;;;10.02;3.03;;;;;;;12.98;100.00;99860.50;5028024;28;20041;-46
2023/08/03 04:53:16;;;;;;;16.00;4.28;;;;;;;12.97;100.00;99867.28;5028944;28;20044;-46
2023/08/03 04:55:44;;;;;;;11.38;4.20;;;;;;;12.95;100.00;99864.84;5030559;28;20049;-46
2023/08/03 04:58:12;;;;;;;15.57;3.75;;;;;;;12.95;100.00;99866.81;5017990;28;20054;-47
2023/08/03 05:00:39;;;;;;;10.75;3.75;;;;;;;12.98;100.00;99871.63;5027824;28;20119;-49
2023/08/03 05:03:06;;;;;;;8.43;2.83;;;;;;;12.98;100.00;99868.84;5031039;28;20048;-46
2023/08/03 05:05:33;;;;;;;9.27;2.65;;;;;;;13.00;100.00;99877.63;5028671;28;20107;-46
2023/08/03 05:08:01;;;;;;;16.33;4.90;;;;;;;13.01;100.00;99876.41;5025822;28;20112;-48
2023/08/03 05:10:28;;;;;;;13.95;3.33;;;;;;;13.01;100.00;99880.00;5028192;28;20044;-46
2023/08/03 05:12:55;;;;;;;11.98;3.45;;;;;;;13.07;100.00;99874.94;5027355;28;20042;-46
2023/08/03 05:15:22;;;;;;;8.60;2.42;;;;;;;13.09;100.00;99881.69;5032136;28;20047;-46
2023/08/03 05:17:49;;;;;;;4.97;2.33;;;;;;;13.10;100.00;99879.72;5031211;28;20075;-46
2023/08/03 05:20:16;;;;;;;13.75;3.15;;;;;;;13.14;100.00;99888.88;5031561;28;20502;-48
2023/08/03 05:22:44;;;;;;;6.03;2.75;;;;;;;13.17;100.00;99885.34;5031311;28;20057;-46
2023/08/03 05:25:11;;;;;;;11.43;3.20;;;;;;;13.19;100.00;99897.66;5031206;28;20049;-48
2023/08/03 05:27:40;;;;;;;14.02;3.47;;;;;;;13.22;100.00;99898.88;5031333;28;20065;-49
2023/08/03 05:30:07;;;;;;;6.05;2.88;;;;;;;13.23;100.00;99898.50;5031263;28;20044;-46
2023/08/03 05:32:34;;;;;;;9.70;2.97;;;;;;;13.25;100.00;99898.94;5031231;28;20045;-47
2023/08/03 05:35:01;;;;;;;10.27;4.65;;;;;;;13.28;100.00;99905.69;5029768;28;20045;-47
2023/08/03 05:37:28;;;;;;;4.88;2.17;;;;;;;13.30;100.00;99911.66;5026237;28;20435;-47
2023/08/03 05:39:56;;;;;;;6.40;2.45;;;;;;;13.33;100.00;99908.13;5031235;28;20534;-48
2023/08/03 05:42:25;;;;;;;3.80;2.42;;;;;;;13.37;100.00;99911.72;5028943;28;20053;-48
2023/08/03 05:44:52;;;;;;;9.20;2.40;;;;;;;13.44;100.00;99922.91;5024671;28;20492;-48
2023/08/03 05:47:19;;;;;;;6.85;2.35;;;;;;;13.49;100.00;99925.34;5024807;28;20046;-47
2023/08/03 05:49:46;;;;;;;3.83;2.15;;;;;;;13.56;100.00;99938.50;5029889;28;20488;-47
2023/08/03 05:52:14;;;;;;;3.95;1.83;;;;;;;13.61;100.00;99941.72;5024217;28;20049;-47
2023/08/03 05:54:41;;;;;;;5.57;2.30;;;;;;;13.68;100.00;99947.38;5026655;28;20049;-47
2023/08/03 05:57:12;;;;;;;3.47;1.90;;;;;;;13.74;100.00;99936.69;5030489;28;20046;-47
2023/08/03 05:59:40;;;;;;;4.95;1.80;;;;;;;13.79;100.00;99953.00;5025074;28;20048;-48
2023/08/03 06:02:26;;;;;;;7.45;1.92;;;;;;;13.85;100.00;99955.03;5030949;28;20175;-46
2023/08/03 06:04:53;;;;;;;4.00;2.15;;;;;;;13.93;100.00;99967.00;5024729;28;20055;-46
2023/08/03 06:07:20;;;;;;;5.72;1.95;;;;;;;13.99;100.00;99969.06;5024412;28;20046;-46
2023/08/03 06:09:49;;;;;;;4.53;1.67;;;;;;;14.09;100.00;99970.31;5024862;28;20050;-47
2023/08/03 06:12:19;;;;;;;4.45;1.85;;;;;;;14.20;100.00;99975.94;5023067;28;20692;-46
2023/08/03 06:14:45;;;;;;;2.65;1.58;;;;;;;14.31;100.00;99968.47;5025699;28;20091;-46
2023/08/03 06:17:13;;;;;;;2.80;1.50;;;;;;;14.37;100.00;99975.28;5026511;28;20052;-45
2023/08/03 06:19:40;;;;;;;2.95;1.52;;;;;;;14.42;100.00;99977.72;5027401;28;20053;-46
2023/08/03 06:22:18;;;;;;;2.00;1.40;;;;;;;14.47;100.00;99982.91;5028355;28;20503;-48
2023/08/03 06:24:45;;;;;;;5.90;1.45;;;;;;;14.44;100.00;99992.84;5024534;28;20053;-46
2023/08/03 06:27:12;;;;;;;5.95;1.70;;;;;;;14.43;100.00;99991.22;5028568;28;20072;-47
2023/08/03 06:29:40;;;;;;;5.32;1.90;;;;;;;14.42;100.00;99991.63;5028350;28;20120;-45
2023/08/03 06:32:17;;;;;;;4.38;1.55;;;;;;;14.41;100.00;100001.16;5024811;28;20099;-46
2023/08/03 06:34:44;;;;;;;2.53;1.60;;;;;;;14.40;100.00;100000.34;5023357;28;20055;-46
2023/08/03 06:37:11;;;;;;;2.88;1.35;;;;;;;14.42;100.00;100005.56;5029718;28;20493;-47
2023/08/03 06:39:38;;;;;;;1.60;1.45;;;;;;;14.43;100.00;100007.13;5034605;28;20053;-46
2023/08/03 06:42:05;;;;;;;6.43;2.13;;;;;;;14.41;100.00;100017.88;5029704;28;20559;-46
2023/08/03 06:44:32;;;;;;;4.43;1.38;;;;;;;14.40;100.00;100019.09;5033595;28;20072;-47
2023/08/03 06:47:03;;;;;;;3.47;1.30;;;;;;;14.40;100.00;100014.28;5032355;28;20133;-50
2023/08/03 06:49:30;;;;;;;2.65;1.70;;;;;;;14.38;100.00;100024.22;5026838;28;20056;-53
2023/08/03 06:51:57;;;;;;;4.03;1.55;;;;;;;14.39;100.00;100028.63;5000741;28;20049;-48
2023/08/03 06:54:25;;;;;;;2.55;1.40;;;;;;;14.41;100.00;100038.19;5034382;28;20037;-46
2023/08/03 06:56:52;;;;;;;6.18;1.40;;;;;;;14.42;99.75;100030.63;5028379;28;20030;-46
2023/08/03 06:59:21;;;;;;;3.38;1.60;;;;;;;14.45;99.77;100041.78;5032154;28;20103;-52
2023/08/03 07:01:49;;;;;;;2.67;1.50;;;;;;;14.51;99.49;100043.00;5034650;28;20069;-52
2023/08/03 07:04:16;;;;;;;4.63;1.55;;;;;;;14.56;99.32;100050.22;5033983;28;20053;-48
2023/08/03 07:06:46;;;;;;;3.78;1.40;;;;;;;14.63;99.15;100050.25;5028605;28;20120;-47
2023/08/03 07:09:13;;;;;;;3.50;1.30;;;;;;;14.75;99.22;100063.84;5030269;28;20048;-47
2023/08/03 07:11:40;;;;;;;3.15;1.33;;;;;;;14.87;99.02;100055.16;5026619;28;20688;-48
2023/08/03 07:14:09;;;;;;;4.93;1.60;;;;;;;14.96;98.33;100052.00;5027376;28;20050;-53
2023/08/03 07:16:36;;;;;;;2.58;1.00;;;;;;;15.01;97.82;100057.22;5033833;28;20046;-49
2023/08/03 07:19:06;;;;;;;2.83;1.30;;;;;;;15.05;97.61;100064.41;5034063;28;20076;-46
2023/08/03 07:21:33;;;;;;;2.67;1.35;;;;;;;15.14;97.36;100069.63;5024049;28;20067;-46
2023/08/03 07:24:01;;;;;;;3.17;1.10;;;;;;;15.17;97.16;100069.63;5032634;28;20510;-47
2023/08/03 07:26:28;;;;;;;7.53;1.50;;;;;;;15.16;96.74;100072.81;5031823;28;20056;-46
2023/08/03 07:28:55;;;;;;;5.82;1.50;;;;;;;15.12;96.45;100072.78;5031554;28;20045;-47
2023/08/03 07:31:22;;;;;;;2.35;1.45;;;;;;;15.13;96.24;100074.41;5030855;28;20543;-46
2023/08/03 07:33:49;;;;;;;6.13;1.45;;;;;;;15.08;95.55;100094.28;5033876;28;20046;-47
2023/08/03 07:36:18;;;;;;;4.70;1.50;;;;;;;14.97;95.38;100087.84;5031406;28;20045;-48
2023/08/03 07:38:46;;;;;;;7.50;1.30;;;;;;;14.94;95.21;100101.78;5030750;28;20045;-48
2023/08/03 07:41:13;;;;;;;4.85;2.15;;;;;;;14.93;95.10;100103.75;5031307;28;20037;-48
2023/08/03 07:43:40;;;;;;;7.13;1.52;;;;;;;14.91;94.93;100110.91;5033311;28;20052;-47
2023/08/03 07:46:06;;;;;;;3.70;1.42;;;;;;;14.90;94.68;100107.34;5033230;28;20049;-47
2023/08/03 07:48:33;;;;;;;3.92;1.58;;;;;;;14.90;94.65;100115.69;5033099;28;20550;-46
2023/08/03 07:51:15;;;;;;;4.07;1.55;;;;;;;14.95;94.80;100112.53;5029252;28;20080;-46
2023/08/03 07:53:45;;;;;;;5.55;1.20;;;;;;;14.98;94.70;100114.56;5030994;28;20052;-46
2023/08/03 07:56:15;;;;;;;4.00;1.25;;;;;;;15.01;94.22;100116.53;5033407;28;20406;-48
2023/08/03 07:58:43;;;;;;;4.88;1.27;;;;;;;15.02;94.02;100115.34;5033133;28;20049;-46
2023/08/03 08:01:10;;;;;;;4.28;1.00;;;;;;;15.05;93.67;100131.31;5033334;28;20142;-47
2023/08/03 08:03:38;;;;;;;7.05;1.13;;;;;;;15.06;93.31;100130.09;5033020;28;20033;-46
2023/08/03 08:06:11;;;;;;;2.95;0.93;;;;;;;15.10;93.25;100130.94;5032607;28;20041;-46
2023/08/03 08:08:38;;;;;;;0.70;0.60;;;;;;;15.18;92.92;100132.56;5031743;28;20038;-48
2023/08/03 08:11:06;;;;;;;2.97;0.80;;;;;;;15.25;92.60;100137.38;5031871;28;20399;-47
2023/08/03 08:13:39;;;;;;;4.40;1.58;;;;;;;15.38;92.44;100141.41;5031169;28;20057;-46
2023/08/03 08:16:08;;;;;;;2.10;0.90;;;;;;;15.49;91.94;100136.72;5032966;28;20052;-46
2023/08/03 08:18:36;;;;;;;2.78;1.08;;;;;;;15.56;91.55;100147.09;5031361;28;20045;-47
2023/08/03 08:21:05;;;;;;;5.60;0.80;;;;;;;15.59;91.18;100151.91;5032753;28;20139;-45
2023/08/03 08:23:32;;;;;;;2.08;0.80;;;;;;;15.61;90.98;100157.88;5032944;28;20073;-46
2023/08/03 08:25:59;;;;;;;2.80;1.02;;;;;;;15.60;90.73;100157.09;5032329;28;20061;-48
2023/08/03 08:28:28;;;;;;;3.42;0.98;;;;;;;15.58;90.54;100165.06;5033051;28;20049;-48
2023/08/03 08:31:03;;;;;;;4.18;0.60;;;;;;;15.55;90.29;100167.81;5032575;28;20045;-46
2023/08/03 08:33:29;;;;;;;5.80;1.33;;;;;;;15.49;89.94;100166.63;5032714;28;20049;-46
2023/08/03 08:35:56;;;;;;;2.42;1.00;;;;;;;15.41;89.81;100173.34;5030530;28;20060;-46
2023/08/03 08:38:23;;;;;;;3.17;1.10;;;;;;;15.34;89.59;100184.44;5032614;28;20049;-46
2023/08/03 08:40:50;;;;;;;6.68;2.53;;;;;;;15.27;89.48;100186.00;5032326;28;20060;-46
2023/08/03 08:43:20;;;;;;;4.03;1.00;;;;;;;15.25;89.56;100177.22;5028316;28;20041;-46
2023/08/03 08:45:47;;;;;;;5.03;0.82;;;;;;;15.27;89.51;100191.56;5032179;28;20045;-45
2023/08/03 08:48:14;;;;;;;3.63;0.63;;;;;;;15.34;89.53;100190.00;5032127;28;20045;-48
2023/08/03 08:50:45;;;;;;;1.63;0.70;;;;;;;15.42;89.29;100197.22;5032422;28;20037;-47
2023/08/03 08:53:15;;;;;;;4.18;0.93;;;;;;;15.58;89.11;100206.09;5032130;28;20072;-45
2023/08/03 08:55:42;;;;;;;1.27;0.70;;;;;;;15.82;88.83;100199.81;5032080;28;20116;-46
2023/08/03 08:58:12;;;;;;;0.77;0.73;;;;;;;16.04;87.65;100204.28;5024541;28;20049;-45
2023/08/03 09:00:46;;;;;;;2.83;0.60;;;;;;;16.21;86.68;100209.09;5029587;28;20049;-47
2023/08/03 09:03:15;;;;;;;1.77;0.52;;;;;;;16.20;86.40;100215.09;5032047;28;20059;-48
2023/08/03 09:05:42;;;;;;;2.55;0.52;;;;;;;16.08;86.25;100219.03;5019117;28;20407;-46
2023/08/03 09:08:14;;;;;;;2.30;0.40;;;;;;;16.02;86.23;100226.19;5030828;28;20049;-46
2023/08/03 09:10:51;;;;;;;2.70;0.68;;;;;;;15.98;85.97;100205.88;5031737;28;20496;-46
2023/08/03 09:13:31;;;;;;;1.60;0.70;;;;;;;15.94;85.64;100224.59;5030072;28;20169;-47
2023/08/03 09:15:59;;;;;;;2.22;0.82;;;;;;;15.93;85.47;100228.59;5031850;28;20496;-46
2023/08/03 09:18:27;;;;;;;0.50;0.43;;;;;;;15.90;84.97;100223.78;5031783;28;20448;-47
2023/08/03 09:21:15;;;;;;;1.88;0.77;;;;;;;15.83;85.28;100240.53;5028495;28;20080;-47
2023/08/03 09:23:46;;;;;;;2.33;0.57;;;;;;;15.83;85.29;100244.09;5020599;28;20511;-45
2023/08/03 09:26:24;;;;;;;2.40;0.70;;;;;;;15.95;85.38;100230.97;5031296;28;20073;-46
2023/08/03 09:28:54;;;;;;;3.17;0.93;;;;;;;16.08;84.96;100235.81;5031737;28;20135;-46
2023/08/03 09:31:24;;;;;;;1.33;0.57;;;;;;;16.42;84.77;100233.47;5031366;28;20041;-48
2023/08/03 09:33:55;;;;;;;1.25;0.80;;;;;;;16.64;83.74;100242.72;5031545;28;20450;-49
2023/08/03 09:36:22;;;;;;;5.63;0.75;;;;;;;16.68;83.41;100232.34;5030257;28;20053;-49
2023/08/03 09:39:15;;;;;;;1.35;0.82;;;;;;;16.70;83.11;100227.97;5026555;28;20088;-46
2023/08/03 09:41:45;;;;;;;3.17;0.65;;;;;;;16.62;82.58;100231.16;5031512;28;20044;-46
2023/08/03 09:44:17;;;;;;;3.55;0.70;;;;;;;16.57;82.27;100239.94;5031450;28;20046;-47
2023/08/03 09:46:48;;;;;;;1.65;0.73;;;;;;;16.52;82.54;100234.69;5031307;28;20096;-46
2023/08/03 09:49:15;;;;;;;1.85;0.80;;;;;;;16.49;82.56;100241.09;5031223;28;20053;-46
2023/08/03 09:51:44;;;;;;;4.97;1.45;;;;;;;16.55;82.25;100239.53;5031371;28;20061;-46
2023/08/03 09:54:34;;;;;;;2.47;1.45;;;;;;;16.64;82.03;100245.50;5030961;28;20041;-46
2023/08/03 09:57:29;;;;;;;0.95;0.52;;;;;;;16.70;82.01;100244.72;5025200;28;20506;-46
2023/08/03 10:00:06;;;;;;;2.90;0.40;;;;;;;16.81;81.81;100245.50;5027203;28;20057;-46
2023/08/03 10:03:00;;;;;;;4.18;1.00;;;;;;;16.82;81.29;100254.69;5021472;28;20037;-48
2023/08/03 10:05:30;;;;;;;2.67;1.13;;;;;;;16.69;80.91;100257.09;5010408;28;20135;-46
2023/08/03 10:08:06;;;;;;;2.30;0.98;;;;;;;16.63;80.82;100267.06;5031144;28;20045;-46
2023/08/03 10:10:38;;;;;;;1.65;0.52;;;;;;;16.54;80.44;100257.50;5014904;28;20053;-46
2023/08/03 10:13:04;;;;;;;1.20;0.43;;;;;;;16.40;80.21;100261.81;5033454;28;20033;-47
2023/08/03 10:15:32;;;;;;;1.65;0.35;;;;;;;16.33;79.79;100270.19;5034313;28;20056;-45
2023/08/03 10:18:04;;;;;;;4.25;0.50;;;;;;;16.36;79.80;100274.97;5035131;28;20137;-46
2023/08/03 10:20:33;;;;;;;1.33;0.75;;;;;;;16.48;79.74;100281.38;5034925;28;20520;-47
2023/08/03 10:23:11;;;;;;;0.40;0.40;;;;;;;16.95;79.69;100287.47;5035311;28;20059;-45
2023/08/03 10:26:06;;;;;;;2.90;0.50;;;;;;;17.88;77.28;100279.75;5033123;28;20053;-46
2023/08/03 10:28:59;;;;;;;3.10;0.90;;;;;;;18.64;75.56;100276.94;5021633;28;20459;-46
2023/08/03 10:31:25;;;;;;;0.95;0.32;;;;;;;19.28;73.77;100277.25;5032231;28;20437;-46
2023/08/03 10:33:52;;;;;;;1.50;0.65;;;;;;;19.41;72.56;100287.56;5034845;28;20060;-43
2023/08/03 10:36:33;;;;;;;1.23;0.55;;;;;;;19.20;73.50;100295.34;5034800;28;20042;-43
2023/08/03 10:39:04;;;;;;;0.98;0.50;;;;;;;18.85;72.72;100297.25;5029251;28;20503;-43
2023/08/03 10:41:42;;;;;;;1.88;0.75;;;;;;;18.55;73.00;100301.88;5034816;28;20492;-43
2023/08/03 10:44:10;;;;;;;1.85;0.57;;;;;;;18.35;73.12;100298.72;5033863;28;20041;-43
2023/08/03 10:46:40;;;;;;;2.40;0.60;;;;;;;18.13;72.67;100305.66;5025573;28;20061;-44
2023/08/03 10:49:20;;;;;;;4.55;0.70;;;;;;;18.02;73.39;100307.69;5031847;28;20049;-43
2023/08/03 10:51:51;;;;;;;;;;;;;;;17.90;73.46;100308.94;5035125;28;20048;-45
2023/08/03 10:54:20;;;;;;;2.40;0.40;;;;;;;17.85;73.11;100308.53;5034504;28;19925;-46
2023/08/03 10:57:22;;;;;;;0.93;0.43;;;;;;;17.72;72.54;100321.38;5034594;28;20042;-48
2023/08/03 10:59:51;;;;;;;8.30;0.73;;;;;;;17.77;72.73;100323.78;4991076;28;20077;-47
2023/08/03 11:02:20;;;;;;;3.22;0.70;;;;;;;17.90;72.06;100319.34;5032886;28;20546;-45
2023/08/03 11:05:12;;;;;;;1.95;0.47;;;;;;;17.88;71.41;100321.75;5027231;28;20455;-46
2023/08/03 11:07:41;;;;;;;3.15;0.85;;;;;;;17.75;71.11;100331.78;5023899;28;20171;-48
2023/08/03 11:10:10;;;;;;;3.83;0.85;;;;;;;17.59;70.92;100338.63;5034012;28;20500;-46
2023/08/03 11:12:42;;;;;;;3.30;1.15;;;;;;;17.45;71.06;100341.41;5020587;28;20045;-49
2023/08/03 11:15:14;;;;;;;2.50;1.40;;;;;;;17.33;71.46;100338.22;5034369;28;20095;-47
2023/08/03 11:17:41;;;;;;;3.67;2.08;;;;;;;17.22;72.04;100338.22;5033977;28;20518;-45
2023/08/03 11:20:08;;;;;;;7.20;2.05;;;;;;;17.14;72.61;100345.00;5039229;28;20128;-46
2023/08/03 11:22:35;;;;;;;3.42;1.13;;;;;;;17.15;72.66;100351.41;5041128;28;20399;-48
2023/08/03 11:25:06;;;;;;;6.30;2.63;;;;;;;17.21;72.75;100350.59;5033233;28;20057;-45
2023/08/03 11:27:32;;;;;;;4.72;1.63;;;;;;;17.43;72.83;100349.41;5033826;28;20049;-47
2023/08/03 11:30:02;;;;;;;2.53;1.33;;;;;;;17.83;72.15;100353.78;5020847;28;20050;-46
2023/08/03 11:32:31;;;;;;;1.80;1.10;;;;;;;18.14;71.43;100349.25;5023259;28;20046;-45
2023/08/03 11:35:05;;;;;;;2.67;0.88;;;;;;;18.33;71.47;100357.19;5034167;28;20048;-45